createdAt,value
2023-04-01T00:01:27.615Z,96351.50
2023-04-01T00:05:32.428Z,96356.34
2023-04-01T00:09:36.380Z,96358.34
2023-04-01T00:13:39.463Z,96361.56
2023-04-01T00:17:42.837Z,96362.78
2023-04-01T00:21:47.823Z,96366.38
2023-04-01T00:25:51.421Z,96357.16
2023-04-01T00:29:54.761Z,96369.16
2023-04-01T00:33:57.863Z,96371.78
2023-04-01T00:38:02.472Z,96367.38
2023-04-01T00:42:06.001Z,96371.16
2023-04-01T00:46:09.390Z,96374.38
2023-04-01T00:50:12.580Z,96377.19
2023-04-01T00:54:20.821Z,96386.03
2023-04-01T00:58:28.384Z,96385.25
2023-04-01T01:02:34.152Z,96384.44
2023-04-01T01:06:48.815Z,96383.22
2023-04-01T01:10:53.508Z,96383.34
2023-04-01T01:15:06.054Z,96376.72
2023-04-01T01:19:20.644Z,96370.25
2023-04-01T01:24:00.175Z,96374.19
2023-04-01T01:28:24.579Z,96362.72
2023-04-01T01:33:03.374Z,96367.69
2023-04-01T01:37:13.044Z,96359.41
2023-04-01T01:41:23.396Z,96366.41
2023-04-01T01:45:30.199Z,96369.59
2023-04-01T01:49:35.581Z,96362.94
2023-04-01T01:53:40.878Z,96350.72
2023-04-01T02:02:28.081Z,96366.75
2023-04-01T02:06:34.858Z,96357.72
2023-04-01T02:10:44.946Z,96360.31
2023-04-01T02:14:52.793Z,96351.09
2023-04-01T02:18:57.838Z,96353.88
2023-04-01T02:23:02.071Z,96348.22
2023-04-01T02:27:07.577Z,96355.22
2023-04-01T02:31:12.483Z,96353.13
2023-04-01T02:35:18.695Z,96355.50
2023-04-01T02:39:22.300Z,96357.94
2023-04-01T02:43:26.990Z,96359.97
2023-04-01T02:47:30.228Z,96359.84
2023-04-01T02:51:33.595Z,96359.28
2023-04-01T02:55:37.117Z,96359.28
2023-04-01T02:59:41.771Z,96369.16
2023-04-01T03:03:44.844Z,96363.75
2023-04-01T03:07:49.190Z,96354.97
2023-04-01T03:11:52.462Z,96367.00
2023-04-01T03:15:57.383Z,96358.38
2023-04-01T03:20:00.866Z,96368.13
2023-04-01T03:24:03.822Z,96362.53
2023-04-01T03:28:07.247Z,96372.88
2023-04-01T03:32:12.003Z,96378.09
2023-04-01T03:36:15.635Z,96382.94
2023-04-01T03:40:18.900Z,96389.53
2023-04-01T03:44:22.249Z,96400.03
2023-04-01T03:48:27.829Z,96410.56
2023-04-01T03:52:31.289Z,96411.09
2023-04-01T03:56:34.815Z,96420.66
2023-04-01T04:00:37.803Z,96408.59
2023-04-01T04:04:42.665Z,96407.66
2023-04-01T04:08:46.125Z,96406.41
2023-04-01T04:12:49.403Z,96409.38
2023-04-01T04:16:52.690Z,96404.13
2023-04-01T04:20:57.383Z,96402.09
2023-04-01T04:25:00.817Z,96407.66
2023-04-01T04:29:04.540Z,96406.81
2023-04-01T04:33:07.956Z,96396.41
2023-04-01T04:37:12.475Z,96415.16
2023-04-01T04:41:16.513Z,96409.97
2023-04-01T04:45:19.971Z,96403.78
2023-04-01T04:49:23.450Z,96422.00
2023-04-01T04:53:27.778Z,96431.97
2023-04-01T04:57:31.379Z,96439.41
2023-04-01T05:01:38.078Z,96442.50
2023-04-01T05:05:41.621Z,96431.53
2023-04-01T05:09:47.142Z,96437.78
2023-04-01T05:13:51.628Z,96433.41
2023-04-01T05:17:54.932Z,96427.00
2023-04-01T05:21:58.195Z,96429.22
2023-04-01T05:26:06.226Z,96429.91
2023-04-01T05:30:10.235Z,96439.16
2023-04-01T05:34:13.212Z,96437.19
2023-04-01T05:38:16.608Z,96437.59
2023-04-01T05:42:21.431Z,96437.91
2023-04-01T05:46:28.031Z,96437.78
2023-04-01T05:50:31.269Z,96442.19
2023-04-01T05:54:35.200Z,96456.09
2023-04-01T05:58:40.579Z,96462.38
2023-04-01T06:02:44.518Z,96449.59
2023-04-01T06:06:49.193Z,96460.88
2023-04-01T06:11:06.063Z,96457.25
2023-04-01T06:15:21.311Z,96458.47
2023-04-01T06:19:38.537Z,96461.75
2023-04-01T06:23:53.672Z,96469.03
2023-04-01T06:28:25.433Z,96469.69
2023-04-01T06:33:01.963Z,96477.59
2023-04-01T06:37:26.125Z,96468.00
2023-04-01T06:41:40.868Z,96476.06
2023-04-01T06:45:53.483Z,96469.06
2023-04-01T06:50:06.028Z,96473.94
2023-04-01T06:54:14.834Z,96465.31
2023-04-01T06:58:23.358Z,96469.38
2023-04-01T07:02:35.073Z,96472.41
2023-04-01T07:06:46.683Z,96471.44
2023-04-01T07:10:56.373Z,96465.03
2023-04-01T07:15:04.893Z,96464.63
2023-04-01T07:19:14.714Z,96456.78
2023-04-01T07:23:25.106Z,96465.44
2023-04-01T07:27:28.792Z,96454.84
2023-04-01T07:31:48.252Z,96470.81
2023-04-01T07:36:02.044Z,96473.91
2023-04-01T07:40:21.599Z,96470.53
2023-04-01T07:44:30.756Z,96467.72
2023-04-01T07:48:41.406Z,96469.94
2023-04-01T07:52:53.602Z,96464.81
2023-04-01T07:57:07.551Z,96470.00
2023-04-01T08:01:21.100Z,96473.56
2023-04-01T08:05:29.322Z,96479.47
2023-04-01T08:10:09.873Z,96476.50
2023-04-01T08:14:24.545Z,96476.19
2023-04-01T08:18:41.676Z,96483.47
2023-04-01T08:22:47.411Z,96482.69
2023-04-01T08:26:57.482Z,96477.50
2023-04-01T08:31:08.372Z,96484.88
2023-04-01T08:35:19.862Z,96494.63
2023-04-01T08:39:28.102Z,96493.47
2023-04-01T08:44:02.033Z,96489.19
2023-04-01T08:48:24.973Z,96482.41
2023-04-01T08:52:36.468Z,96481.88
2023-04-01T08:56:45.325Z,96472.03
2023-04-01T09:00:53.624Z,96470.75
2023-04-01T09:05:25.148Z,96469.47
2023-04-01T09:09:49.790Z,96479.28
2023-04-01T09:14:14.079Z,96472.41
2023-04-01T09:18:48.231Z,96478.94
2023-04-01T09:23:13.363Z,96475.19
2023-04-01T09:27:29.593Z,96478.22
2023-04-01T09:31:57.847Z,96476.53
2023-04-01T09:36:10.925Z,96477.69
2023-04-01T09:40:20.944Z,96472.97
2023-04-01T09:44:33.954Z,96480.72
2023-04-01T09:48:45.579Z,96482.44
2023-04-01T09:52:56.245Z,96467.56
2023-04-01T09:57:33.537Z,96463.78
2023-04-01T10:01:54.394Z,96467.91
2023-04-01T10:10:58.001Z,96465.53
2023-04-01T10:15:45.705Z,96455.91
2023-04-01T10:20:15.067Z,96463.41
2023-04-01T10:24:41.599Z,96469.19
2023-04-01T10:29:14.366Z,96457.72
2023-04-01T10:33:50.119Z,96462.97
2023-04-01T10:38:16.248Z,96470.84
2023-04-01T10:42:58.573Z,96466.63
2023-04-01T10:47:34.708Z,96460.34
2023-04-01T10:52:03.958Z,96453.22
2023-04-01T10:56:49.636Z,96452.13
2023-04-01T11:01:30.420Z,96445.09
2023-04-01T11:06:30.945Z,96434.25
2023-04-01T11:11:06.950Z,96423.75
2023-04-01T11:15:55.961Z,96434.28
2023-04-01T11:20:31.343Z,96418.00
2023-04-01T11:25:13.149Z,96422.72
2023-04-01T11:29:44.396Z,96403.63
2023-04-01T11:34:01.440Z,96403.38
2023-04-01T11:38:19.417Z,96406.19
2023-04-01T11:42:32.717Z,96405.47
2023-04-01T11:46:46.225Z,96399.69
2023-04-01T11:51:08.522Z,96393.22
2023-04-01T11:55:27.897Z,96379.50
2023-04-01T12:00:06.068Z,96378.25
2023-04-01T12:04:25.757Z,96373.81
2023-04-01T12:08:40.079Z,96375.66
2023-04-01T12:13:00.742Z,96380.19
2023-04-01T12:17:12.145Z,96365.16
2023-04-01T12:21:28.020Z,96358.94
2023-04-01T12:25:52.779Z,96360.16
2023-04-01T12:30:24.449Z,96359.66
2023-04-01T12:34:59.587Z,96364.81
2023-04-01T12:39:22.752Z,96372.50
2023-04-01T12:43:54.431Z,96405.72
2023-04-01T12:48:25.757Z,96434.75
2023-04-01T12:52:44.095Z,96434.41
2023-04-01T12:56:56.558Z,96419.78
2023-04-01T13:01:47.541Z,96404.41
2023-04-01T13:06:20.916Z,96408.28
2023-04-01T13:10:39.304Z,96404.19
2023-04-01T13:14:58.992Z,96402.91
2023-04-01T13:19:11.062Z,96401.56
2023-04-01T13:23:30.044Z,96407.91
2023-04-01T13:27:38.000Z,96407.75
2023-04-01T13:32:02.416Z,96408.28
2023-04-01T13:36:19.867Z,96411.81
2023-04-01T13:40:36.493Z,96408.25
2023-04-01T13:44:44.896Z,96414.06
2023-04-01T13:49:08.264Z,96403.44
2023-04-01T13:53:53.822Z,96417.84
2023-04-01T13:58:35.377Z,96414.41
2023-04-01T14:08:07.454Z,96408.31
2023-04-01T14:12:22.247Z,96416.88
2023-04-01T14:16:52.149Z,96421.25
2023-04-01T14:21:10.873Z,96424.56
2023-04-01T14:25:35.790Z,96429.91
2023-04-01T14:29:55.108Z,96439.66
2023-04-01T14:34:10.065Z,96433.25
2023-04-01T14:38:31.070Z,96417.31
2023-04-01T14:48:04.004Z,96427.00
2023-04-01T14:52:13.588Z,96440.47
2023-04-01T14:56:41.808Z,96463.13
2023-04-01T15:01:00.334Z,96484.72
2023-04-01T15:05:17.893Z,96487.88
2023-04-01T15:09:30.068Z,96483.56
2023-04-01T15:13:52.033Z,96493.47
2023-04-01T15:18:19.654Z,96482.13
2023-04-01T15:22:45.290Z,96494.41
2023-04-01T15:27:06.158Z,96499.25
2023-04-01T15:31:16.565Z,96512.50
2023-04-01T15:35:37.415Z,96509.28
2023-04-01T15:39:55.092Z,96517.34
2023-04-01T15:43:58.141Z,96516.13
2023-04-01T15:48:04.521Z,96513.28
2023-04-01T15:52:21.732Z,96518.13
2023-04-01T15:56:44.763Z,96521.97
2023-04-01T16:00:49.943Z,96524.34
2023-04-01T16:04:59.719Z,96527.38
2023-04-01T16:09:14.815Z,96525.97
2023-04-01T16:13:46.547Z,96525.38
2023-04-01T16:18:10.858Z,96536.63
2023-04-01T16:22:19.774Z,96546.31
2023-04-01T16:26:29.334Z,96543.09
2023-04-01T16:30:40.112Z,96548.72
2023-04-01T16:34:49.871Z,96553.34
2023-04-01T16:39:11.923Z,96561.13
2023-04-01T16:43:23.898Z,96564.16
2023-04-01T16:47:33.780Z,96581.25
2023-04-01T16:51:44.226Z,96578.81
2023-04-01T16:55:54.277Z,96580.19
2023-04-01T17:00:05.329Z,96591.81
2023-04-01T17:04:19.978Z,96595.03
2023-04-01T17:08:32.655Z,96597.63
2023-04-01T17:12:45.067Z,96600.84
2023-04-01T17:16:59.183Z,96602.81
2023-04-01T17:21:11.490Z,96603.00
2023-04-01T17:25:34.496Z,96608.38
2023-04-01T17:29:57.933Z,96614.97
2023-04-01T17:34:12.115Z,96623.13
2023-04-01T17:38:28.407Z,96620.25
2023-04-01T17:42:43.697Z,96628.19
2023-04-01T17:47:12.497Z,96628.53
2023-04-01T17:51:27.198Z,96633.91
2023-04-01T17:55:53.234Z,96637.69
2023-04-01T18:00:04.702Z,96634.09
2023-04-01T18:04:28.216Z,96645.09
2023-04-01T18:08:45.718Z,96650.47
2023-04-01T18:13:14.934Z,96653.06
2023-04-01T18:17:27.025Z,96657.03
2023-04-01T18:21:39.330Z,96652.00
2023-04-01T18:25:47.275Z,96668.81
2023-04-01T18:29:57.381Z,96667.59
2023-04-01T18:34:09.144Z,96668.78
2023-04-01T18:38:16.019Z,96672.81
2023-04-01T18:42:31.649Z,96664.38
2023-04-01T18:46:50.536Z,96671.19
2023-04-01T18:50:57.580Z,96677.41
2023-04-01T18:55:34.203Z,96680.81
2023-04-01T18:59:41.848Z,96672.00
2023-04-01T19:03:56.039Z,96671.38
2023-04-01T19:08:20.486Z,96679.84
2023-04-01T19:12:37.435Z,96685.22
2023-04-01T19:16:52.201Z,96690.00
2023-04-01T19:21:02.426Z,96691.38
2023-04-01T19:25:22.278Z,96693.16
2023-04-01T19:29:41.213Z,96692.94
2023-04-01T19:33:57.443Z,96688.09
2023-04-01T19:38:06.791Z,96696.31
2023-04-01T19:42:22.406Z,96686.06
2023-04-01T19:46:35.182Z,96689.28
2023-04-01T19:50:41.842Z,96693.28
2023-04-01T19:54:55.685Z,96704.69
2023-04-01T19:59:07.293Z,96707.06
2023-04-01T20:03:23.503Z,96710.41
2023-04-01T20:07:33.875Z,96707.38
2023-04-01T20:11:53.100Z,96702.72
2023-04-01T20:16:03.944Z,96711.31
2023-04-01T20:21:04.382Z,96710.91
2023-04-01T20:25:16.941Z,96720.31
2023-04-01T20:29:41.139Z,96719.13
2023-04-01T20:34:00.361Z,96716.34
2023-04-01T20:38:22.529Z,96722.44
2023-04-01T20:42:51.497Z,96718.69
2023-04-01T20:47:05.494Z,96715.13
2023-04-01T20:51:11.925Z,96725.53
2023-04-01T20:55:46.001Z,96728.78
2023-04-01T21:00:18.654Z,96735.06
2023-04-01T21:04:34.116Z,96731.25
2023-04-01T21:08:50.197Z,96732.53
2023-04-01T21:12:59.170Z,96733.75
2023-04-01T21:17:11.106Z,96745.38
2023-04-01T21:21:43.978Z,96744.75
2023-04-01T21:26:01.314Z,96745.28
2023-04-01T21:30:17.202Z,96749.28
2023-04-01T21:34:46.402Z,96753.25
2023-04-01T21:39:06.600Z,96754.22
2023-04-01T21:43:25.674Z,96759.63
2023-04-01T21:48:13.485Z,96764.03
2023-04-01T21:52:44.861Z,96766.00
2023-04-01T21:57:34.136Z,96769.63
2023-04-01T22:02:01.326Z,96767.19
2023-04-01T22:06:19.759Z,96766.00
2023-04-01T22:10:33.413Z,96766.00
2023-04-01T22:14:43.282Z,96756.47
2023-04-01T22:18:53.253Z,96752.06
2023-04-01T22:23:21.645Z,96756.78
2023-04-01T22:27:33.051Z,96758.41
2023-04-01T22:31:43.861Z,96760.22
2023-04-01T22:35:53.962Z,96768.91
2023-04-01T22:40:23.904Z,96769.06
2023-04-01T22:44:40.803Z,96775.34
2023-04-01T22:48:49.137Z,96780.66
2023-04-01T22:52:59.397Z,96786.66
2023-04-01T22:57:08.285Z,96784.00
2023-04-01T23:01:19.185Z,96790.03
2023-04-01T23:05:24.738Z,96793.59
2023-04-01T23:09:31.976Z,96804.84
2023-04-01T23:13:40.962Z,96798.41
2023-04-01T23:17:59.221Z,96808.38
2023-04-01T23:22:10.491Z,96809.19
2023-04-01T23:26:23.447Z,96812.59
2023-04-01T23:30:49.414Z,96814.03
2023-04-01T23:34:54.777Z,96811.34
2023-04-01T23:38:59.857Z,96814.69
2023-04-01T23:43:04.767Z,96809.47
2023-04-01T23:47:10.481Z,96813.44
2023-04-01T23:51:17.309Z,96816.78
2023-04-01T23:55:25.177Z,96823.69
2023-04-01T23:59:33.198Z,96821.66
